Time;durP1;ratioP1;P1;durP2;ratioP2;P2;SDS_P1;SDS_P2;PMS_P1;PMS_P2;Temp;Humidity;BMP_temperature;BMP_pressure;BME280_temperature;BME280_humidity;BME280_pressure;Samples;Min_cycle;Max_cycle;Signal;HPM_P1;HPM_P2
2021/01/12 00:01:40;;;;;;;;;;;;;;;-0.17;100.00;100074.28;5093475;28;20397;-68
2021/01/12 00:04:06;;;;;;;;;;;;;;;-0.19;100.00;100067.28;5093521;28;20018;-68
2021/01/12 00:06:32;;;;;;;;;;;;;;;-0.20;100.00;100063.75;5093071;28;19932;-68
2021/01/12 00:08:58;;;;;;;;;;;;;;;-0.18;100.00;100064.53;5093459;28;20434;-68
2021/01/12 00:11:24;;;;;;;;;;;;;;;-0.18;100.00;100050.34;5093539;28;19928;-68
2021/01/12 00:13:49;;;;;;;;;;;;;;;-0.19;100.00;100054.81;5092199;28;20311;-68
2021/01/12 00:16:18;;;;;;;;;;;;;;;-0.18;100.00;100055.66;5105160;28;19923;-68
2021/01/12 00:18:44;;;;;;;;;;;;;;;-0.20;100.00;100045.06;5113590;28;19970;-68
2021/01/12 00:21:10;;;;;;;;;;;;;;;-0.19;100.00;100044.16;5113638;28;20301;-68
2021/01/12 00:23:36;;;;;;;;;;;;;;;-0.20;100.00;100042.41;5113263;28;19928;-68
2021/01/12 00:26:05;;;;;;;;;;;;;;;-0.21;100.00;100029.16;5113308;28;20304;-69
2021/01/12 00:28:30;;;;;;;;;;;;;;;-0.23;100.00;100026.56;5112306;28;19973;-68
2021/01/12 00:30:56;;;;;;;;;;;;;;;-0.23;100.00;100031.91;5113397;28;19972;-68
2021/01/12 00:33:23;;;;;;;;;;;;;;;-0.21;100.00;100031.81;5112105;28;19928;-68
2021/01/12 00:35:48;;;;;;;;;;;;;;;-0.20;100.00;100023.72;5113160;28;20440;-68
2021/01/12 00:38:14;;;;;;;;;;;;;;;-0.19;100.00;100017.47;5113070;28;19927;-69
2021/01/12 00:40:40;;;;;;;;;;;;;;;-0.17;100.00;100017.38;5113006;28;19946;-68
2021/01/12 00:43:06;;;;;;;;;;;;;;;-0.18;100.00;100010.31;5112974;28;19927;-68
2021/01/12 00:45:32;;;;;;;;;;;;;;;-0.18;100.00;100008.50;5113065;28;20374;-68
2021/01/12 00:47:57;;;;;;;;;;;;;;;-0.19;100.00;100004.13;5113150;28;19966;-68
2021/01/12 00:50:24;;;;;;;;;;;;;;;-0.20;100.00;99999.72;5113052;28;19932;-68
2021/01/12 00:52:51;;;;;;;;;;;;;;;-0.18;100.00;99992.50;5112146;28;22655;-68
2021/01/12 00:55:17;;;;;;;;;;;;;;;-0.18;100.00;99994.31;5112940;28;19931;-68
2021/01/12 00:57:43;;;;;;;;;;;;;;;-0.15;100.00;99987.97;5112707;28;20014;-68
2021/01/12 01:00:09;;;;;;;;;;;;;;;-0.15;100.00;99986.16;5111131;28;19930;-68
2021/01/12 01:02:35;;;;;;;;;;;;;;;-0.13;100.00;99983.41;5105947;28;19987;-68
2021/01/12 01:05:01;;;;;;;;;;;;;;;-0.14;100.00;99974.53;5112379;28;20429;-68
2021/01/12 01:07:27;;;;;;;;;;;;;;;-0.11;100.00;99978.88;5112530;28;19931;-68
2021/01/12 01:09:53;;;;;;;;;;;;;;;-0.09;100.00;99974.34;5112732;28;19963;-68
2021/01/12 01:12:19;;;;;;;;;;;;;;;-0.09;100.00;99969.00;5112671;28;19932;-68
2021/01/12 01:14:45;;;;;;;;;;;;;;;-0.09;100.00;99964.50;5112860;28;19927;-69
2021/01/12 01:17:10;;;;;;;;;;;;;;;-0.06;100.00;99963.50;5112433;28;19924;-69
2021/01/12 01:19:36;;;;;;;;;;;;;;;-0.06;100.00;99969.69;5112479;28;19928;-68
2021/01/12 01:22:02;;;;;;;;;;;;;;;-0.04;100.00;99964.28;5112136;28;19924;-68
2021/01/12 01:24:29;;;;;;;;;;;;;;;-0.02;100.00;99954.41;5112338;28;19924;-68
2021/01/12 01:26:55;;;;;;;;;;;;;;;0.00;100.00;99947.19;5112210;28;19924;-68
2021/01/12 01:29:21;;;;;;;;;;;;;;;0.01;100.00;99943.56;5112357;28;20369;-68
2021/01/12 01:31:47;;;;;;;;;;;;;;;0.01;100.00;99943.56;5112294;28;19973;-69
2021/01/12 01:34:12;;;;;;;;;;;;;;;0.03;100.00;99944.38;5112212;28;19931;-68
2021/01/12 01:36:38;;;;;;;;;;;;;;;0.04;100.00;99942.53;5111852;28;19946;-68
2021/01/12 01:39:04;;;;;;;;;;;;;;;0.05;100.00;99930.94;5111668;28;19930;-69
2021/01/12 01:41:31;;;;;;;;;;;;;;;0.05;100.00;99920.25;5112167;28;20567;-68
2021/01/12 01:43:57;;;;;;;;;;;;;;;0.05;100.00;99928.28;5112034;28;20412;-69
2021/01/12 01:46:23;;;;;;;;;;;;;;;0.05;100.00;99921.13;5111894;28;19966;-68
2021/01/12 01:48:49;;;;;;;;;;;;;;;0.06;100.00;99909.50;5112109;28;20042;-68
2021/01/12 01:51:15;;;;;;;;;;;;;;;0.06;100.00;99904.16;5111976;28;20369;-68
2021/01/12 01:53:41;;;;;;;;;;;;;;;0.06;100.00;99906.84;5111918;28;19993;-68
2021/01/12 01:56:07;;;;;;;;;;;;;;;0.04;100.00;99899.84;5111279;28;19978;-69
2021/01/12 01:58:37;;;;;;;;;;;;;;;0.03;100.00;99904.34;5111756;28;19956;-68
2021/01/12 02:01:03;;;;;;;;;;;;;;;0.02;100.00;99891.94;5111976;28;19984;-68
2021/01/12 02:03:30;;;;;;;;;;;;;;;0.00;100.00;99899.16;5111955;28;20350;-69
2021/01/12 02:06:00;;;;;;;;;;;;;;;-0.07;100.00;99908.41;5111591;28;19969;-68
2021/01/12 02:08:27;;;;;;;;;;;;;;;-0.14;100.00;99888.31;5111849;28;19924;-69
2021/01/12 02:10:55;;;;;;;;;;;;;;;-0.19;100.00;99893.88;5111814;28;20429;-68
2021/01/12 02:13:22;;;;;;;;;;;;;;;-0.25;100.00;99894.19;5111517;28;19930;-68
2021/01/12 02:15:49;;;;;;;;;;;;;;;-0.33;100.00;99886.56;5111360;28;20468;-68
2021/01/12 02:18:15;;;;;;;;;;;;;;;-0.36;100.00;99884.03;5111426;28;20389;-68
2021/01/12 02:20:42;;;;;;;;;;;;;;;-0.42;100.00;99887.00;5111713;28;19955;-68
2021/01/12 02:23:09;;;;;;;;;;;;;;;-0.44;100.00;99883.53;5111707;28;19967;-69
2021/01/12 02:25:36;;;;;;;;;;;;;;;-0.48;100.00;99887.28;5111572;28;20355;-69
2021/01/12 02:28:03;;;;;;;;;;;;;;;-0.52;100.00;99879.47;5111481;28;20408;-68
2021/01/12 02:30:29;;;;;;;;;;;;;;;-0.57;100.00;99865.47;5111354;28;20322;-68
2021/01/12 02:32:55;;;;;;;;;;;;;;;-0.60;100.00;99878.97;5111235;28;19979;-68
2021/01/12 02:35:22;;;;;;;;;;;;;;;-0.62;100.00;99853.31;5111537;28;19928;-69
2021/01/12 02:37:48;;;;;;;;;;;;;;;-0.63;100.00;99856.91;5111361;28;20353;-68
2021/01/12 02:40:14;;;;;;;;;;;;;;;-0.64;100.00;99857.84;5111496;28;19924;-68
2021/01/12 02:42:42;;;;;;;;;;;;;;;-0.65;100.00;99854.34;5111759;28;19989;-68
2021/01/12 02:45:08;;;;;;;;;;;;;;;-0.66;100.00;99852.59;5111573;28;20396;-68
2021/01/12 02:47:35;;;;;;;;;;;;;;;-0.65;100.00;99859.66;5111142;28;20006;-68
2021/01/12 02:50:01;;;;;;;;;;;;;;;-0.65;100.00;99851.66;5110093;28;20048;-68
2021/01/12 02:52:26;;;;;;;;;;;;;;;-0.66;100.00;99841.94;5111424;28;19966;-69
2021/01/12 02:54:52;;;;;;;;;;;;;;;-0.68;100.00;99838.50;5111382;28;19924;-68
2021/01/12 02:57:18;;;;;;;;;;;;;;;-0.68;100.00;99833.16;5111247;28;19946;-68
2021/01/12 02:59:45;;;;;;;;;;;;;;;-0.69;100.00;99839.44;5111777;28;19931;-68
2021/01/12 03:02:10;;;;;;;;;;;;;;;-0.70;100.00;99827.88;5111671;28;19923;-68
2021/01/12 03:04:36;;;;;;;;;;;;;;;-0.70;100.00;99821.69;5111562;28;19950;-69
2021/01/12 03:07:02;;;;;;;;;;;;;;;-0.70;100.00;99813.72;5112502;28;19976;-69
2021/01/12 03:09:28;;;;;;;;;;;;;;;-0.70;100.00;99816.38;5115169;28;20369;-69
2021/01/12 03:11:54;;;;;;;;;;;;;;;-0.70;100.00;99809.22;5115013;28;19930;-69
2021/01/12 03:14:20;;;;;;;;;;;;;;;-0.70;100.00;99806.56;5115023;28;19973;-69
2021/01/12 03:16:47;;;;;;;;;;;;;;;-0.69;100.00;99788.78;5115022;27;19924;-69
2021/01/12 03:19:12;;;;;;;;;;;;;;;-0.68;100.00;99791.38;5114871;28;20465;-69
2021/01/12 03:21:38;;;;;;;;;;;;;;;-0.69;100.00;99786.13;5114692;28;20015;-69
2021/01/12 03:24:05;;;;;;;;;;;;;;;-0.66;100.00;99785.97;5114289;28;19928;-68
2021/01/12 03:26:31;;;;;;;;;;;;;;;-0.65;100.00;99774.38;5114492;28;20459;-68
2021/01/12 03:28:57;;;;;;;;;;;;;;;-0.63;100.00;99767.13;5114671;28;19936;-68
2021/01/12 03:31:23;;;;;;;;;;;;;;;-0.65;100.00;99760.19;5114591;28;19924;-69
2021/01/12 03:33:49;;;;;;;;;;;;;;;-0.64;100.00;99764.56;5114526;28;20387;-68
2021/01/12 03:36:15;;;;;;;;;;;;;;;-0.63;100.00;99750.28;5114274;28;20419;-68
2021/01/12 03:38:41;;;;;;;;;;;;;;;-0.62;100.00;99752.03;5114376;28;19928;-68
2021/01/12 03:41:07;;;;;;;;;;;;;;;-0.62;100.00;99739.53;5114480;28;19935;-68
2021/01/12 03:43:32;;;;;;;;;;;;;;;-0.60;100.00;99750.13;5114071;28;19946;-68
2021/01/12 03:45:58;;;;;;;;;;;;;;;-0.61;100.00;99751.94;5114098;28;19924;-68
2021/01/12 03:48:24;;;;;;;;;;;;;;;-0.60;100.00;99734.13;5114254;28;20001;-68
2021/01/12 03:50:50;;;;;;;;;;;;;;;-0.60;100.00;99740.34;5114293;28;19988;-69
2021/01/12 03:53:16;;;;;;;;;;;;;;;-0.59;100.00;99727.88;5114183;28;19967;-68
2021/01/12 03:55:42;;;;;;;;;;;;;;;-0.60;100.00;99727.00;5113926;28;20427;-68
2021/01/12 03:58:08;;;;;;;;;;;;;;;-0.56;100.00;99723.25;5113954;28;20385;-68
2021/01/12 04:00:34;;;;;;;;;;;;;;;-0.54;100.00;99718.69;5113831;28;19931;-68
2021/01/12 04:03:00;;;;;;;;;;;;;;;-0.54;100.00;99715.16;5113898;28;19959;-69
2021/01/12 04:05:27;;;;;;;;;;;;;;;-0.54;100.00;99720.50;5113916;28;19924;-69
2021/01/12 04:07:54;;;;;;;;;;;;;;;-0.54;100.00;99715.16;5113742;28;19962;-68
2021/01/12 04:10:19;;;;;;;;;;;;;;;-0.55;100.00;99711.66;5113886;28;19935;-68
2021/01/12 04:12:45;;;;;;;;;;;;;;;-0.54;100.00;99712.50;5113802;28;19923;-69
2021/01/12 04:15:12;;;;;;;;;;;;;;;-0.53;100.00;99703.56;5113881;28;19950;-69
2021/01/12 04:17:37;;;;;;;;;;;;;;;-0.54;100.00;99700.03;5113603;28;19971;-69
2021/01/12 04:20:04;;;;;;;;;;;;;;;-0.52;100.00;99700.81;5112792;28;20401;-68
2021/01/12 04:22:29;;;;;;;;;;;;;;;-0.52;100.00;99689.31;5113386;28;20419;-69
2021/01/12 04:24:56;;;;;;;;;;;;;;;-0.52;100.00;99687.47;5113576;28;19924;-69
2021/01/12 04:27:22;;;;;;;;;;;;;;;-0.51;100.00;99683.00;5113268;28;19963;-69
2021/01/12 04:29:47;;;;;;;;;;;;;;;-0.51;100.00;99686.56;5113450;28;20430;-69
2021/01/12 04:32:13;;;;;;;;;;;;;;;-0.49;100.00;99686.47;5113389;28;19928;-69
2021/01/12 04:34:39;;;;;;;;;;;;;;;-0.47;100.00;99679.22;5113293;28;19960;-69
2021/01/12 04:37:05;;;;;;;;;;;;;;;-0.48;100.00;99673.97;5113001;28;19924;-69
2021/01/12 04:39:31;;;;;;;;;;;;;;;-0.47;100.00;99670.38;5112953;28;19946;-69
2021/01/12 04:41:57;;;;;;;;;;;;;;;-0.46;100.00;99677.44;5113022;28;19924;-69
2021/01/12 04:44:23;;;;;;;;;;;;;;;-0.48;100.00;99669.53;5113135;28;19927;-69
2021/01/12 04:46:49;;;;;;;;;;;;;;;-0.47;100.00;99662.38;5113001;28;19924;-68
2021/01/12 04:49:15;;;;;;;;;;;;;;;-0.49;100.00;99657.13;5112917;28;20373;-69
2021/01/12 04:51:41;;;;;;;;;;;;;;;-0.48;100.00;99652.66;5112927;28;19924;-69
2021/01/12 04:54:07;;;;;;;;;;;;;;;-0.51;100.00;99651.88;5113054;28;19959;-69
2021/01/12 04:56:33;;;;;;;;;;;;;;;-0.50;100.00;99652.75;5112391;28;19981;-68
2021/01/12 04:58:59;;;;;;;;;;;;;;;-0.49;100.00;99653.59;5112784;28;19930;-69
2021/01/12 05:01:25;;;;;;;;;;;;;;;-0.49;100.00;99638.47;5112637;28;19963;-67
2021/01/12 05:03:52;;;;;;;;;;;;;;;-0.49;100.00;99642.91;5112852;28;19933;-67
2021/01/12 05:06:19;;;;;;;;;;;;;;;-0.49;100.00;99632.25;5112421;28;19927;-67
2021/01/12 05:08:45;;;;;;;;;;;;;;;-0.48;100.00;99632.19;5105532;28;19962;-67
2021/01/12 05:11:11;;;;;;;;;;;;;;;-0.48;100.00;99626.88;5096844;28;20004;-67
2021/01/12 05:13:39;;;;;;;;;;;;;;;-0.46;100.00;99632.13;5099177;28;19923;-68
2021/01/12 05:16:07;;;;;;;;;;;;;;;-0.44;100.00;99616.88;5111815;28;20427;-66
2021/01/12 05:18:36;;;;;;;;;;;;;;;-0.45;100.00;99626.69;5105459;28;20324;-67
2021/01/12 05:21:02;;;;;;;;;;;;;;;-0.44;100.00;99616.88;5092158;28;20046;-66
2021/01/12 05:23:29;;;;;;;;;;;;;;;-0.44;100.00;99616.88;5098131;28;19930;-66
2021/01/12 05:26:00;;;;;;;;;;;;;;;-0.43;100.00;99613.28;5110756;28;19993;-66
2021/01/12 05:28:28;;;;;;;;;;;;;;;-0.41;100.00;99600.75;5103395;28;20300;-66
2021/01/12 05:30:54;;;;;;;;;;;;;;;-0.40;100.00;99603.31;5090980;28;20458;-66
2021/01/12 05:33:21;;;;;;;;;;;;;;;-0.41;100.00;99600.75;5102181;28;19970;-66
2021/01/12 05:35:48;;;;;;;;;;;;;;;-0.42;100.00;99596.34;5110809;28;19962;-67
2021/01/12 05:38:24;;;;;;;;;;;;;;;-0.41;100.00;99596.25;5109979;28;19923;-66
2021/01/12 05:40:53;;;;;;;;;;;;;;;-0.40;100.00;99591.78;5110238;28;19931;-68
2021/01/12 05:43:19;;;;;;;;;;;;;;;-0.41;100.00;99598.06;5111715;28;20018;-67
2021/01/12 05:45:45;;;;;;;;;;;;;;;-0.41;100.00;99593.59;5110391;28;19924;-66
2021/01/12 05:48:11;;;;;;;;;;;;;;;-0.40;100.00;99576.66;5111806;28;19924;-67
2021/01/12 05:50:38;;;;;;;;;;;;;;;-0.41;100.00;99587.41;5109016;28;19974;-67
2021/01/12 05:53:05;;;;;;;;;;;;;;;-0.42;100.00;99580.34;5091453;28;19963;-67
2021/01/12 05:55:34;;;;;;;;;;;;;;;-0.43;100.00;99595.47;5110500;28;19934;-66
2021/01/12 05:58:09;;;;;;;;;;;;;;;-0.43;100.00;99575.94;5102132;28;19946;-67
2021/01/12 06:00:36;;;;;;;;;;;;;;;-0.43;100.00;99578.63;5091544;28;19966;-66
2021/01/12 06:03:02;;;;;;;;;;;;;;;-0.45;100.00;99578.69;5092372;28;20581;-66
2021/01/12 06:05:30;;;;;;;;;;;;;;;-0.44;100.00;99569.75;5091255;28;20378;-66
2021/01/12 06:07:57;;;;;;;;;;;;;;;-0.43;100.00;99570.63;5110124;28;19967;-66
2021/01/12 06:10:24;;;;;;;;;;;;;;;-0.43;100.00;99565.28;5111449;28;20018;-66
2021/01/12 06:12:52;;;;;;;;;;;;;;;-0.43;100.00;99560.78;5109852;28;19962;-66
2021/01/12 06:15:18;;;;;;;;;;;;;;;-0.43;100.00;99566.13;5095415;28;20416;-66
2021/01/12 06:17:44;;;;;;;;;;;;;;;-0.43;100.00;99559.94;5090396;28;19924;-66
2021/01/12 06:20:15;;;;;;;;;;;;;;;-0.44;100.00;99563.56;5091378;28;19931;-66
2021/01/12 06:22:42;;;;;;;;;;;;;;;-0.46;100.00;99560.97;5091166;28;19931;-66
2021/01/12 06:25:12;;;;;;;;;;;;;;;-0.44;100.00;99559.09;5108245;28;19927;-66
2021/01/12 06:27:38;;;;;;;;;;;;;;;-0.44;100.00;99556.44;5111399;28;19963;-67
2021/01/12 06:30:05;;;;;;;;;;;;;;;-0.42;100.00;99564.34;5096783;28;20353;-66
2021/01/12 06:32:31;;;;;;;;;;;;;;;-0.43;100.00;99546.63;5091144;28;19939;-66
2021/01/12 06:34:58;;;;;;;;;;;;;;;-0.44;100.00;99537.78;5091400;28;19931;-66
2021/01/12 06:37:24;;;;;;;;;;;;;;;-0.42;100.00;99553.69;5089927;28;19934;-66
2021/01/12 06:39:51;;;;;;;;;;;;;;;-0.42;100.00;99546.53;5102613;28;19984;-68
2021/01/12 06:42:22;;;;;;;;;;;;;;;-0.41;100.00;99539.41;5113089;28;19927;-66
2021/01/12 06:44:49;;;;;;;;;;;;;;;-0.39;100.00;99543.72;5105928;28;20019;-65
2021/01/12 06:47:16;;;;;;;;;;;;;;;-0.38;100.00;99534.75;5101769;28;19936;-67
2021/01/12 06:49:42;;;;;;;;;;;;;;;-0.36;100.00;99540.88;5103766;28;20014;-67
2021/01/12 06:52:08;;;;;;;;;;;;;;;-0.34;100.00;99532.78;5099041;28;19935;-66
2021/01/12 06:54:35;;;;;;;;;;;;;;;-0.34;100.00;99527.44;5115130;28;19924;-66
2021/01/12 06:57:01;;;;;;;;;;;;;;;-0.32;100.00;99538.03;5108582;28;20010;-66
2021/01/12 06:59:35;;;;;;;;;;;;;;;-0.33;100.00;99531.84;5095424;28;20099;-67
2021/01/12 07:02:04;;;;;;;;;;;;;;;-0.30;100.00;99529.00;5105517;28;19965;-66
2021/01/12 07:04:30;;;;;;;;;;;;;;;-0.29;100.00;99533.38;5108720;28;20401;-66
2021/01/12 07:07:00;;;;;;;;;;;;;;;-0.28;100.00;99526.25;5114566;28;19959;-67
2021/01/12 07:09:27;;;;;;;;;;;;;;;-0.26;100.00;99546.53;5114080;28;19985;-67
2021/01/12 07:12:02;;;;;;;;;;;;;;;-0.23;100.00;99526.84;5114833;28;19963;-66
2021/01/12 07:14:28;;;;;;;;;;;;;;;-0.20;100.00;99529.34;5113646;28;19931;-66
2021/01/12 07:17:04;;;;;;;;;;;;;;;-0.17;100.00;99529.19;5114456;28;19924;-66
2021/01/12 07:19:30;;;;;;;;;;;;;;;-0.17;100.00;99522.03;5110604;28;19970;-66
2021/01/12 07:22:05;;;;;;;;;;;;;;;-0.14;100.00;99525.50;5111366;28;19924;-66
2021/01/12 07:24:36;;;;;;;;;;;;;;;-0.14;100.00;99522.81;5112589;28;19928;-66
2021/01/12 07:27:01;;;;;;;;;;;;;;;-0.12;100.00;99519.13;5112701;28;20431;-65
2021/01/12 07:29:27;;;;;;;;;;;;;;;-0.09;100.00;99510.09;5112016;28;19959;-66
2021/01/12 07:32:02;;;;;;;;;;;;;;;-0.07;100.00;99508.19;5100041;28;19928;-65
2021/01/12 07:34:32;;;;;;;;;;;;;;;-0.05;100.00;99514.31;5095014;28;19928;-65
2021/01/12 07:36:58;;;;;;;;;;;;;;;-0.06;100.00;99510.75;5114102;28;20415;-65
2021/01/12 07:39:24;;;;;;;;;;;;;;;-0.05;100.00;99514.31;5113408;28;19927;-65
2021/01/12 07:41:50;;;;;;;;;;;;;;;-0.05;100.00;99511.63;5113927;28;20439;-65
2021/01/12 07:44:17;;;;;;;;;;;;;;;-0.04;100.00;99510.66;5114182;28;20655;-65
2021/01/12 07:46:44;;;;;;;;;;;;;;;-0.03;100.00;99515.06;5113360;28;20428;-65
2021/01/12 07:49:11;;;;;;;;;;;;;;;-0.03;100.00;99513.28;5114283;28;20022;-65
2021/01/12 07:51:37;;;;;;;;;;;;;;;-0.02;100.00;99503.44;5111102;28;20034;-65
2021/01/12 07:54:02;;;;;;;;;;;;;;;-0.01;100.00;99498.00;5111814;28;19931;-65
2021/01/12 07:56:28;;;;;;;;;;;;;;;-0.01;100.00;99503.34;5112918;28;19949;-65
2021/01/12 07:58:54;;;;;;;;;;;;;;;-0.02;100.00;99508.78;5110505;28;19978;-65
2021/01/12 08:01:25;;;;;;;;;;;;;;;-0.02;100.00;99500.78;5104331;28;20472;-65
2021/01/12 08:03:51;;;;;;;;;;;;;;;-0.02;100.00;99498.94;5110205;28;20368;-65
2021/01/12 08:06:17;;;;;;;;;;;;;;;-0.03;100.00;99499.94;5109662;28;19924;-65
2021/01/12 08:08:43;;;;;;;;;;;;;;;-0.02;100.00;99498.94;5093497;28;20551;-66
2021/01/12 08:11:09;;;;;;;;;;;;;;;-0.02;100.00;99501.63;5092230;28;19924;-64
2021/01/12 08:13:35;;;;;;;;;;;;;;;-0.01;100.00;99498.00;5093034;28;20390;-64
2021/01/12 08:16:08;;;;;;;;;;;;;;;0.01;100.00;99489.06;5094070;28;19932;-64
2021/01/12 08:18:33;;;;;;;;;;;;;;;0.01;100.00;99489.91;5101383;28;19983;-64
2021/01/12 08:21:00;;;;;;;;;;;;;;;0.03;100.00;99500.50;5109862;28;19928;-64
2021/01/12 08:23:26;;;;;;;;;;;;;;;0.03;100.00;99488.03;5103550;28;20034;-64
2021/01/12 08:25:52;;;;;;;;;;;;;;;0.03;100.00;99495.16;5103414;28;20030;-64
2021/01/12 08:28:18;;;;;;;;;;;;;;;0.03;100.00;99482.69;5106686;28;19928;-65
2021/01/12 08:30:44;;;;;;;;;;;;;;;0.04;100.00;99487.09;5097643;28;19931;-64
2021/01/12 08:33:12;;;;;;;;;;;;;;;0.04;100.00;99495.09;5107295;28;19976;-64
2021/01/12 08:35:39;;;;;;;;;;;;;;;0.04;100.00;99484.44;5099841;28;19931;-64
2021/01/12 08:38:09;;;;;;;;;;;;;;;0.04;100.00;99488.88;5092681;28;20026;-65
2021/01/12 08:40:36;;;;;;;;;;;;;;;0.05;100.00;99488.78;5092527;28;19924;-64
2021/01/12 08:43:02;;;;;;;;;;;;;;;0.07;100.00;99489.56;5112939;28;19962;-64
2021/01/12 08:45:32;;;;;;;;;;;;;;;0.08;100.00;99480.63;5112046;28;20274;-64
2021/01/12 08:48:07;;;;;;;;;;;;;;;0.08;100.00;99487.75;5092306;28;20103;-64
2021/01/12 08:50:33;;;;;;;;;;;;;;;0.10;100.00;99481.38;5096691;28;19986;-64
2021/01/12 08:52:59;;;;;;;;;;;;;;;0.09;100.00;99477.00;5099702;28;20564;-65
2021/01/12 08:55:25;;;;;;;;;;;;;;;0.10;100.00;99478.72;5110294;28;20072;-64
2021/01/12 08:57:55;;;;;;;;;;;;;;;0.11;100.00;99484.94;5111448;28;19969;-64
2021/01/12 09:00:26;;;;;;;;;;;;;;;0.11;100.00;99477.78;5110505;28;19923;-64
2021/01/12 09:02:53;;;;;;;;;;;;;;;0.13;100.00;99472.34;5105386;28;19935;-65
2021/01/12 09:05:18;;;;;;;;;;;;;;;0.13;100.00;99477.69;5094325;28;19928;-64
2021/01/12 09:07:44;;;;;;;;;;;;;;;0.12;100.00;99471.50;5087979;28;19931;-65
2021/01/12 09:10:11;;;;;;;;;;;;;;;0.12;100.00;99465.28;5095973;28;19931;-64
2021/01/12 09:12:36;;;;;;;;;;;;;;;0.11;100.00;99469.78;5107834;28;19969;-65
2021/01/12 09:15:04;;;;;;;;;;;;;;;0.09;100.00;99458.31;5104233;28;19924;-65
2021/01/12 09:17:30;;;;;;;;;;;;;;;0.08;100.00;99463.75;5093254;28;19924;-63
2021/01/12 09:19:56;;;;;;;;;;;;;;;0.07;100.00;99465.56;5112441;28;19958;-64
2021/01/12 09:22:22;;;;;;;;;;;;;;;0.09;100.00;99457.47;5112129;28;19928;-65
2021/01/12 09:24:49;;;;;;;;;;;;;;;0.09;100.00;99452.97;5107841;28;19928;-65
2021/01/12 09:27:19;;;;;;;;;;;;;;;0.09;100.00;99450.31;5112104;28;19959;-65
2021/01/12 09:29:45;;;;;;;;;;;;;;;0.11;100.00;99460.91;5111575;28;19974;-65
2021/01/12 09:32:12;;;;;;;;;;;;;;;0.12;100.00;99443.94;5111713;28;19924;-65
2021/01/12 09:34:38;;;;;;;;;;;;;;;0.15;100.00;99449.94;5111369;28;19924;-64
2021/01/12 09:37:13;;;;;;;;;;;;;;;0.20;100.00;99456.84;5111859;28;19924;-64
2021/01/12 09:39:39;;;;;;;;;;;;;;;0.23;100.00;99448.63;5094419;28;20019;-65
2021/01/12 09:42:05;;;;;;;;;;;;;;;0.26;100.00;99448.47;5099951;28;19958;-65
2021/01/12 09:44:31;;;;;;;;;;;;;;;0.29;100.00;99440.28;5111941;28;19924;-65
2021/01/12 09:47:00;;;;;;;;;;;;;;;0.28;100.00;99439.44;5104481;28;19931;-66
2021/01/12 09:49:26;;;;;;;;;;;;;;;0.31;100.00;99438.38;5091571;28;20020;-65
2021/01/12 09:51:52;;;;;;;;;;;;;;;0.32;100.00;99437.41;5105799;28;20015;-64
2021/01/12 09:54:18;;;;;;;;;;;;;;;0.35;100.00;99442.59;5105566;28;19924;-65
2021/01/12 09:56:44;;;;;;;;;;;;;;;0.37;100.00;99448.69;5107963;28;19930;-65
2021/01/12 09:59:10;;;;;;;;;;;;;;;0.40;100.00;99442.31;5111580;28;19932;-65
2021/01/12 10:01:35;;;;;;;;;;;;;;;0.42;100.00;99429.75;5111517;28;19931;-66
2021/01/12 10:04:01;;;;;;;;;;;;;;;0.43;100.00;99439.47;5104033;28;20329;-65
2021/01/12 10:06:30;;;;;;;;;;;;;;;0.45;100.00;99435.72;5109268;28;19931;-67
2021/01/12 10:08:55;;;;;;;;;;;;;;;0.45;100.00;99442.91;5103281;28;19955;-65
2021/01/12 10:11:23;;;;;;;;;;;;;;;0.46;100.00;99437.47;5090177;28;19998;-65
2021/01/12 10:13:48;;;;;;;;;;;;;;;0.48;100.00;99432.03;5098048;28;19993;-65
2021/01/12 10:16:19;;;;;;;;;;;;;;;0.49;100.00;99431.06;5111787;28;19924;-65
2021/01/12 10:18:45;;;;;;;;;;;;;;;0.51;100.00;99426.53;5109818;28;19924;-65
2021/01/12 10:21:11;;;;;;;;;;;;;;;0.52;100.00;99430.03;5095503;28;19931;-65
2021/01/12 10:23:38;;;;;;;;;;;;;;;0.54;100.00;99422.81;5106777;28;20389;-66
2021/01/12 10:26:03;;;;;;;;;;;;;;;0.54;100.00;99417.47;5105525;28;20383;-67
2021/01/12 10:28:29;;;;;;;;;;;;;;;0.56;100.00;99408.41;5098473;28;19924;-66
2021/01/12 10:30:55;;;;;;;;;;;;;;;0.57;100.00;99403.91;5097826;28;19932;-66
2021/01/12 10:33:21;;;;;;;;;;;;;;;0.58;100.00;99409.16;5111533;28;19924;-67
2021/01/12 10:35:46;;;;;;;;;;;;;;;0.61;100.00;99408.97;5109016;28;19923;-67
2021/01/12 10:38:12;;;;;;;;;;;;;;;0.62;100.00;99412.50;5115452;28;20304;-67
2021/01/12 10:40:39;;;;;;;;;;;;;;;0.63;100.00;99404.41;5115010;28;20497;-66
2021/01/12 10:43:05;;;;;;;;;;;;;;;0.66;100.00;99400.69;5095688;28;19924;-66
2021/01/12 10:45:30;;;;;;;;;;;;;;;0.70;100.00;99399.53;5106929;28;19924;-67
2021/01/12 10:47:56;;;;;;;;;;;;;;;0.72;100.00;99405.66;5108228;28;19967;-67
2021/01/12 10:50:22;;;;;;;;;;;;;;;0.77;100.00;99397.34;5106888;28;19945;-67
2021/01/12 10:52:48;;;;;;;;;;;;;;;0.81;100.00;99394.38;5099436;28;19931;-68
2021/01/12 10:55:14;;;;;;;;;;;;;;;0.85;100.00;99395.06;5104525;28;19923;-68
2021/01/12 10:57:44;;;;;;;;;;;;;;;0.87;100.00;99390.50;5113013;28;19946;-67
2021/01/12 11:00:10;;;;;;;;;;;;;;;0.90;100.00;99390.28;5113600;28;20012;-69
2021/01/12 11:02:36;;;;;;;;;;;;;;;0.91;100.00;99391.13;5108559;28;19931;-69
2021/01/12 11:05:03;;;;;;;;;;;;;;;0.89;100.00;99385.03;5095925;28;19932;-68
2021/01/12 11:07:31;;;;;;;;;;;;;;;0.89;100.00;99385.88;5095293;28;19924;-69
2021/01/12 11:09:57;;;;;;;;;;;;;;;0.88;100.00;99378.81;5099285;28;20019;-70
2021/01/12 11:12:23;;;;;;;;;;;;;;;0.89;100.00;99377.03;5103630;28;20026;-66
2021/01/12 11:14:50;;;;;;;;;;;;;;;0.88;100.00;99372.63;5103186;28;19935;-67
2021/01/12 11:17:16;;;;;;;;;;;;;;;0.87;100.00;99381.59;5107376;28;19935;-67
2021/01/12 11:19:41;;;;;;;;;;;;;;;0.85;100.00;99372.84;5094344;28;19928;-66
2021/01/12 11:22:07;;;;;;;;;;;;;;;0.83;100.00;99371.09;5094317;28;19967;-67
2021/01/12 11:24:33;;;;;;;;;;;;;;;0.82;100.00;99368.53;5094335;28;19928;-67
2021/01/12 11:27:03;;;;;;;;;;;;;;;0.81;100.00;99370.31;5095376;28;20222;-67
2021/01/12 11:29:28;;;;;;;;;;;;;;;0.83;100.00;99364.91;5094215;28;19959;-67
2021/01/12 11:31:56;;;;;;;;;;;;;;;0.83;100.00;99365.75;5095289;28;19930;-67
2021/01/12 11:34:22;;;;;;;;;;;;;;;0.85;100.00;99368.34;5106984;28;19924;-67
2021/01/12 11:36:48;;;;;;;;;;;;;;;0.85;100.00;99357.66;5103930;28;19930;-67
2021/01/12 11:39:15;;;;;;;;;;;;;;;0.89;100.00;99348.47;5093544;28;19924;-67
2021/01/12 11:41:45;;;;;;;;;;;;;;;0.88;100.00;99364.63;5113927;28;20277;-67
2021/01/12 11:44:11;;;;;;;;;;;;;;;0.88;100.00;99353.94;5114460;28;19931;-68
2021/01/12 11:46:37;;;;;;;;;;;;;;;0.90;100.00;99346.69;5095009;28;19928;-68
2021/01/12 11:49:03;;;;;;;;;;;;;;;0.91;100.00;99343.91;5093765;28;20381;-68
2021/01/12 11:51:36;;;;;;;;;;;;;;;0.91;100.00;99341.25;5110975;28;19992;-68
2021/01/12 11:54:02;;;;;;;;;;;;;;;0.92;100.00;99340.28;5113979;28;19924;-68
2021/01/12 11:56:28;;;;;;;;;;;;;;;0.93;100.00;99344.66;5112666;28;19977;-68
2021/01/12 11:58:54;;;;;;;;;;;;;;;0.96;100.00;99338.25;5113875;28;19935;-68
2021/01/12 12:01:20;;;;;;;;;;;;;;;0.98;100.00;99341.72;5113414;28;20300;-68
2021/01/12 12:03:45;;;;;;;;;;;;;;;1.00;100.00;99345.13;5112249;28;19924;-69
2021/01/12 12:06:12;;;;;;;;;;;;;;;1.02;100.00;99331.66;5093260;28;19924;-68
2021/01/12 12:08:38;;;;;;;;;;;;;;;1.02;100.00;99339.69;5107885;28;19932;-68
2021/01/12 12:11:04;;;;;;;;;;;;;;;1.03;100.00;99334.25;5108237;28;19924;-68
2021/01/12 12:13:30;;;;;;;;;;;;;;;1.03;100.00;99328.91;5105798;28;19931;-69
2021/01/12 12:15:56;;;;;;;;;;;;;;;1.03;100.00;99334.25;5106826;28;19924;-68
2021/01/12 12:18:22;;;;;;;;;;;;;;;1.03;100.00;99328.91;5112320;28;20408;-68
2021/01/12 12:20:48;;;;;;;;;;;;;;;1.05;100.00;99339.50;5112851;28;20342;-68
2021/01/12 12:23:15;;;;;;;;;;;;;;;1.07;100.00;99335.78;5113395;28;20026;-69
2021/01/12 12:25:40;;;;;;;;;;;;;;;1.07;100.00;99330.44;5110859;28;20397;-68
2021/01/12 12:28:06;;;;;;;;;;;;;;;1.08;100.00;99326.81;5110772;28;19935;-68
2021/01/12 12:30:32;;;;;;;;;;;;;;;1.10;100.00;99326.72;5113255;28;19923;-66
2021/01/12 12:32:58;;;;;;;;;;;;;;;1.11;100.00;99321.25;5100750;28;19967;-66
2021/01/12 12:35:23;;;;;;;;;;;;;;;1.12;100.00;99322.97;5101379;28;19928;-67
2021/01/12 12:37:49;;;;;;;;;;;;;;;1.16;100.00;99327.16;5112826;28;19935;-68